createdAt,value
2023-03-22T00:02:21.058Z,94875.00
2023-03-22T00:06:20.982Z,94879.00
2023-03-22T00:10:20.931Z,94874.00
2023-03-22T00:14:20.925Z,94872.00
2023-03-22T00:18:20.861Z,94875.00
2023-03-22T00:22:20.838Z,94879.00
2023-03-22T00:26:20.797Z,94879.00
2023-03-22T00:30:20.788Z,94875.00
2023-03-22T00:34:20.886Z,94872.00
2023-03-22T00:38:27.261Z,94870.00
2023-03-22T00:42:21.788Z,94868.00
2023-03-22T00:46:20.841Z,94866.00
2023-03-22T00:50:20.993Z,94866.00
2023-03-22T00:54:21.267Z,94864.00
2023-03-22T00:58:21.174Z,94856.00
2023-03-22T01:02:21.206Z,94860.00
2023-03-22T01:06:21.101Z,94858.00
2023-03-22T01:10:21.093Z,94860.00
2023-03-22T01:14:21.041Z,94860.00
2023-03-22T01:18:21.002Z,94862.00
2023-03-22T01:22:20.969Z,94858.00
2023-03-22T01:26:20.968Z,94856.00
2023-03-22T01:30:20.871Z,94860.00
2023-03-22T01:34:20.870Z,94860.00
2023-03-22T01:38:20.816Z,94860.00
2023-03-22T01:42:20.798Z,94858.00
2023-03-22T01:46:20.806Z,94856.00
2023-03-22T01:50:20.739Z,94852.00
2023-03-22T01:54:20.766Z,94856.00
2023-03-22T01:58:20.841Z,94854.00
2023-03-22T02:02:20.923Z,94846.00
2023-03-22T02:06:20.870Z,94846.00
2023-03-22T02:10:20.893Z,94842.00
2023-03-22T02:14:20.902Z,94846.00
2023-03-22T02:18:20.871Z,94848.00
2023-03-22T02:22:20.822Z,94842.00
2023-03-22T02:26:20.802Z,94836.00
2023-03-22T02:30:20.804Z,94840.00
2023-03-22T02:34:20.781Z,94836.00
2023-03-22T02:38:20.796Z,94838.00
2023-03-22T02:42:20.793Z,94842.00
2023-03-22T02:46:20.799Z,94848.00
2023-03-22T02:50:20.782Z,94850.00
2023-03-22T02:54:20.760Z,94852.00
2023-03-22T02:58:20.721Z,94844.00
2023-03-22T03:02:20.686Z,94844.00
2023-03-22T03:06:20.702Z,94840.00
2023-03-22T03:10:20.641Z,94842.00
2023-03-22T03:14:20.627Z,94840.00
2023-03-22T03:18:20.675Z,94834.00
2023-03-22T03:22:20.638Z,94832.00
2023-03-22T03:26:20.633Z,94832.00
2023-03-22T03:30:20.655Z,94828.00
2023-03-22T03:34:20.686Z,94830.00
2023-03-22T03:38:20.599Z,94834.00
2023-03-22T03:42:20.610Z,94836.00
2023-03-22T03:46:20.589Z,94834.00
2023-03-22T03:50:20.588Z,94836.00
2023-03-22T03:54:20.604Z,94836.00
2023-03-22T03:58:20.589Z,94832.00
2023-03-22T04:02:20.747Z,94828.00
2023-03-22T04:06:20.598Z,94832.00
2023-03-22T04:10:20.641Z,94832.00
2023-03-22T04:14:20.632Z,94832.00
2023-03-22T04:18:20.628Z,94832.00
2023-03-22T04:22:21.073Z,94834.00
2023-03-22T04:26:20.614Z,94828.00
2023-03-22T04:30:20.664Z,94825.00
2023-03-22T04:34:20.652Z,94823.00
2023-03-22T04:38:20.692Z,94828.00
2023-03-22T04:42:20.704Z,94825.00
2023-03-22T04:46:20.818Z,94828.00
2023-03-22T04:50:20.719Z,94830.00
2023-03-22T04:54:20.795Z,94830.00
2023-03-22T04:58:20.821Z,94834.00
2023-03-22T05:02:20.905Z,94834.00
2023-03-22T05:06:20.853Z,94840.00
2023-03-22T05:10:20.880Z,94842.00
2023-03-22T05:14:20.916Z,94848.00
2023-03-22T05:18:20.890Z,94846.00
2023-03-22T05:22:20.911Z,94848.00
2023-03-22T05:26:20.917Z,94850.00
2023-03-22T05:30:20.974Z,94854.00
2023-03-22T05:34:21.031Z,94856.00
2023-03-22T05:38:21.039Z,94860.00
2023-03-22T05:42:21.078Z,94860.00
2023-03-22T05:46:21.172Z,94864.00
2023-03-22T05:50:21.136Z,94862.00
2023-03-22T05:54:21.136Z,94860.00
2023-03-22T05:58:21.198Z,94860.00
2023-03-22T06:02:21.241Z,94860.00
2023-03-22T06:06:21.207Z,94864.00
2023-03-22T06:10:21.224Z,94862.00
2023-03-22T06:14:21.292Z,94864.00
2023-03-22T06:18:21.296Z,94866.00
2023-03-22T06:22:21.338Z,94868.00
2023-03-22T06:26:21.384Z,94866.00
2023-03-22T06:30:21.386Z,94866.00
2023-03-22T06:34:21.433Z,94868.00
2023-03-22T06:38:21.793Z,94866.00
2023-03-22T06:42:21.821Z,94862.00
2023-03-22T06:46:21.440Z,94860.00
2023-03-22T06:50:21.822Z,94860.00
2023-03-22T06:54:21.804Z,94858.00
2023-03-22T06:58:21.827Z,94854.00
2023-03-22T07:02:21.487Z,94860.00
2023-03-22T07:06:21.454Z,94864.00
2023-03-22T07:10:21.794Z,94866.00
2023-03-22T07:14:21.384Z,94864.00
2023-03-22T07:18:21.810Z,94862.00
2023-03-22T07:22:21.325Z,94866.00
2023-03-22T07:26:21.308Z,94860.00
2023-03-22T07:30:21.223Z,94862.00
2023-03-22T07:34:21.341Z,94864.00
2023-03-22T07:38:21.184Z,94864.00
2023-03-22T07:42:21.355Z,94860.00
2023-03-22T07:46:21.363Z,94850.00
2023-03-22T07:50:21.321Z,94850.00
2023-03-22T07:54:32.941Z,94860.00
2023-03-22T07:58:21.988Z,94854.00
2023-03-22T08:02:21.033Z,94854.00
2023-03-22T08:06:21.348Z,94844.00
2023-03-22T08:10:21.179Z,94840.00
2023-03-22T08:14:27.501Z,94840.00
2023-03-22T08:18:23.840Z,94836.00
2023-03-22T08:22:21.316Z,94836.00
2023-03-22T08:26:21.327Z,94834.00
2023-03-22T08:30:21.388Z,94827.00
2023-03-22T08:34:21.155Z,94827.00
2023-03-22T08:38:21.365Z,94827.00
2023-03-22T08:42:21.387Z,94825.00
2023-03-22T08:46:21.396Z,94821.00
2023-03-22T08:50:21.029Z,94811.00
2023-03-22T08:54:21.372Z,94809.00
2023-03-22T08:58:20.982Z,94803.00
2023-03-22T09:02:21.441Z,94791.00
2023-03-22T09:06:20.893Z,94783.00
2023-03-22T09:10:20.930Z,94779.00
2023-03-22T09:14:20.870Z,94775.00
2023-03-22T09:18:20.775Z,94768.00
2023-03-22T09:22:20.738Z,94760.00
2023-03-22T09:26:20.722Z,94750.00
2023-03-22T09:30:20.640Z,94746.00
2023-03-22T09:34:21.353Z,94748.00
2023-03-22T09:38:20.892Z,94740.00
2023-03-22T09:42:20.871Z,94734.00
2023-03-22T09:46:20.627Z,94730.00
2023-03-22T09:50:20.898Z,94725.00
2023-03-22T09:54:20.884Z,94715.00
2023-03-22T09:58:20.440Z,94709.00
2023-03-22T10:02:20.489Z,94701.00
2023-03-22T10:06:20.371Z,94693.00
2023-03-22T10:10:20.483Z,94689.00
2023-03-22T10:14:20.268Z,94683.00
2023-03-22T10:18:20.395Z,94674.00
2023-03-22T10:22:20.207Z,94668.00
2023-03-22T10:26:20.401Z,94662.00
2023-03-22T10:30:20.377Z,94652.00
2023-03-22T10:34:20.910Z,94648.00
2023-03-22T10:38:20.511Z,94652.00
2023-03-22T10:42:20.922Z,94642.00
2023-03-22T10:46:20.902Z,94634.00
2023-03-22T10:50:20.905Z,94636.00
2023-03-22T10:54:20.664Z,94621.00
2023-03-22T10:58:20.599Z,94615.00
2023-03-22T11:02:20.962Z,94611.00
2023-03-22T11:06:20.573Z,94605.00
2023-03-22T11:10:20.551Z,94603.00
2023-03-22T11:14:20.479Z,94595.00
2023-03-22T11:18:20.432Z,94585.00
2023-03-22T11:22:20.413Z,94581.00
2023-03-22T11:26:20.378Z,94576.00
2023-03-22T11:30:20.324Z,94574.00
2023-03-22T11:34:20.338Z,94566.00
2023-03-22T11:38:20.455Z,94560.00
2023-03-22T11:42:20.946Z,94550.00
2023-03-22T11:46:20.707Z,94542.00
2023-03-22T11:50:20.923Z,94534.00
2023-03-22T11:54:20.861Z,94529.00
2023-03-22T11:58:22.420Z,94521.00
2023-03-22T12:02:21.124Z,94515.00
2023-03-22T12:06:21.154Z,94513.00
2023-03-22T12:10:21.307Z,94505.00
2023-03-22T12:14:21.519Z,94499.00
2023-03-22T12:18:21.536Z,94493.00
2023-03-22T12:22:21.460Z,94485.00
2023-03-22T12:26:21.415Z,94474.00
2023-03-22T12:30:21.424Z,94470.00
2023-03-22T12:34:21.454Z,94464.00
2023-03-22T12:38:21.302Z,94456.00
2023-03-22T12:42:21.455Z,94448.00
2023-03-22T12:46:21.528Z,94440.00
2023-03-22T12:50:21.223Z,94432.00
2023-03-22T12:54:21.172Z,94425.00
2023-03-22T12:58:21.114Z,94419.00
2023-03-22T13:02:21.150Z,94415.00
2023-03-22T13:06:21.053Z,94409.00
2023-03-22T13:10:21.036Z,94399.00
2023-03-22T13:14:20.966Z,94397.00
2023-03-22T13:18:20.959Z,94399.00
2023-03-22T13:22:20.896Z,94389.00
2023-03-22T13:26:21.005Z,94381.00
2023-03-22T13:30:20.973Z,94364.00
2023-03-22T13:34:20.950Z,94368.00
2023-03-22T13:38:20.864Z,94358.00
2023-03-22T13:42:20.848Z,94350.00
2023-03-22T13:46:20.917Z,94354.00
2023-03-22T13:50:20.771Z,94352.00
2023-03-22T13:54:20.749Z,94338.00
2023-03-22T13:58:20.721Z,94333.00
2023-03-22T14:02:20.698Z,94329.00
2023-03-22T14:06:20.996Z,94321.00
2023-03-22T14:10:20.584Z,94321.00
2023-03-22T14:14:20.631Z,94319.00
2023-03-22T14:18:20.789Z,94315.00
2023-03-22T14:47:20.899Z,94287.00
2023-03-22T14:51:20.825Z,94287.00
2023-03-22T14:55:20.806Z,94285.00
2023-03-22T14:59:20.800Z,94285.00
2023-03-22T15:03:20.960Z,94282.00
2023-03-22T15:07:20.740Z,94272.00
2023-03-22T15:11:20.664Z,94270.00
2023-03-22T15:15:20.626Z,94262.00
2023-03-22T15:19:20.588Z,94262.00
2023-03-22T15:23:20.567Z,94258.00
2023-03-22T15:27:20.531Z,94260.00
2023-03-22T15:31:20.537Z,94262.00
2023-03-22T15:35:20.518Z,94264.00
2023-03-22T15:39:20.716Z,94260.00
2023-03-22T15:43:20.905Z,94258.00
2023-03-22T15:47:21.113Z,94262.00
2023-03-22T15:51:21.301Z,94262.00
2023-03-22T15:55:21.515Z,94264.00
2023-03-22T15:59:21.736Z,94262.00
2023-03-22T16:03:21.673Z,94270.00
2023-03-22T16:07:21.667Z,94276.00
2023-03-22T16:11:21.606Z,94278.00
2023-03-22T16:15:21.584Z,94274.00
2023-03-22T16:19:21.530Z,94276.00
2023-03-22T16:23:21.513Z,94280.00
2023-03-22T16:27:21.438Z,94287.00
2023-03-22T16:31:21.541Z,94291.00
2023-03-22T16:35:21.378Z,94291.00
2023-03-22T16:39:21.370Z,94295.00
2023-03-22T16:43:21.346Z,94301.00
2023-03-22T16:47:21.305Z,94301.00
2023-03-22T16:51:21.252Z,94305.00
2023-03-22T16:55:21.179Z,94307.00
2023-03-22T16:59:21.204Z,94311.00
2023-03-22T17:03:21.174Z,94321.00
2023-03-22T17:07:21.108Z,94327.00
2023-03-22T17:11:21.190Z,94331.00
2023-03-22T17:15:21.240Z,94336.00
2023-03-22T17:19:21.339Z,94340.00
2023-03-22T17:23:21.400Z,94342.00
2023-03-22T17:27:21.487Z,94342.00
2023-03-22T17:31:21.621Z,94348.00
2023-03-22T17:35:21.659Z,94354.00
2023-03-22T17:40:00.431Z,94364.00
2023-03-22T17:43:22.722Z,94362.00
2023-03-22T17:51:21.733Z,94379.00
2023-03-22T17:55:27.740Z,94385.00
2023-03-22T17:59:22.859Z,94397.00
2023-03-22T18:03:21.849Z,94405.00
2023-03-22T18:07:21.805Z,94411.00
2023-03-22T18:11:21.996Z,94419.00
2023-03-22T18:15:22.203Z,94427.00
2023-03-22T18:19:22.209Z,94434.00
2023-03-22T18:23:22.172Z,94444.00
2023-03-22T18:27:22.552Z,94456.00
2023-03-22T18:31:22.102Z,94462.00
2023-03-22T18:35:22.017Z,94466.00
2023-03-22T18:39:47.497Z,94474.00
2023-03-22T18:43:22.965Z,94479.00
2023-03-22T18:47:21.935Z,94489.00
2023-03-22T18:51:21.869Z,94495.00
2023-03-22T18:55:29.360Z,94497.00
2023-03-22T18:59:22.836Z,94503.00
2023-03-22T19:03:21.791Z,94507.00
2023-03-22T19:07:41.228Z,94507.00
2023-03-22T19:11:22.715Z,94509.00
2023-03-22T19:15:48.840Z,94513.00
2023-03-22T19:19:22.645Z,94517.00
2023-03-22T19:23:21.607Z,94523.00
2023-03-22T19:27:24.904Z,94525.00
2023-03-22T19:31:21.520Z,94525.00
2023-03-22T19:35:21.514Z,94523.00
2023-03-22T19:39:22.204Z,94529.00
2023-03-22T19:43:21.432Z,94532.00
2023-03-22T19:47:22.231Z,94531.00
2023-03-22T19:51:21.359Z,94529.00
2023-03-22T19:55:21.343Z,94531.00
2023-03-22T19:59:21.367Z,94532.00
2023-03-22T20:03:21.261Z,94534.00
2023-03-22T20:07:21.204Z,94534.00
2023-03-22T20:11:29.629Z,94536.00
2023-03-22T20:15:22.152Z,94538.00
2023-03-22T20:19:21.108Z,94540.00
2023-03-22T20:23:21.208Z,94544.00
2023-03-22T20:27:21.406Z,94550.00
2023-03-22T20:31:21.627Z,94546.00
2023-03-22T20:35:21.834Z,94552.00
2023-03-22T20:39:21.804Z,94556.00
2023-03-22T20:43:21.750Z,94560.00
2023-03-22T20:47:21.735Z,94564.00
2023-03-22T20:51:21.680Z,94564.00
2023-03-22T20:55:21.626Z,94568.00
2023-03-22T20:59:21.579Z,94570.00
2023-03-22T21:03:21.565Z,94574.00
2023-03-22T21:07:21.520Z,94578.00
2023-03-22T21:11:21.517Z,94581.00
2023-03-22T21:15:21.460Z,94579.00
2023-03-22T21:19:21.865Z,94583.00
2023-03-22T21:23:21.402Z,94591.00
2023-03-22T21:27:21.380Z,94595.00
2023-03-22T21:31:21.344Z,94593.00
2023-03-22T21:35:21.294Z,94601.00
2023-03-22T21:39:21.255Z,94609.00
2023-03-22T21:43:21.210Z,94607.00
2023-03-22T21:47:21.207Z,94607.00
2023-03-22T21:51:21.149Z,94611.00
2023-03-22T21:55:21.109Z,94615.00
2023-03-22T21:59:21.090Z,94617.00
2023-03-22T22:03:21.038Z,94619.00
2023-03-22T22:07:21.007Z,94623.00
2023-03-22T22:11:20.964Z,94623.00
2023-03-22T22:15:20.960Z,94625.00
2023-03-22T22:19:21.021Z,94625.00
2023-03-22T22:23:21.074Z,94623.00
2023-03-22T22:27:21.174Z,94623.00
2023-03-22T22:31:21.233Z,94621.00
2023-03-22T22:35:21.323Z,94623.00
2023-03-22T22:39:21.389Z,94632.00
2023-03-22T22:43:21.483Z,94625.00
2023-03-22T22:47:21.646Z,94632.00
2023-03-22T22:51:21.720Z,94625.00
2023-03-22T22:55:21.861Z,94625.00
2023-03-22T22:59:21.960Z,94638.00
2023-03-22T23:03:22.086Z,94632.00
2023-03-22T23:07:22.208Z,94623.00
2023-03-22T23:11:22.370Z,94619.00
2023-03-22T23:15:27.318Z,94621.00
2023-03-22T23:19:23.492Z,94617.00
2023-03-22T23:23:22.411Z,94615.00
2023-03-22T23:27:22.397Z,94617.00
2023-03-22T23:31:22.423Z,94617.00
2023-03-22T23:35:22.676Z,94615.00
2023-03-22T23:39:22.751Z,94617.00
2023-03-22T23:43:22.883Z,94617.00
2023-03-22T23:47:23.072Z,94613.00
2023-03-22T23:51:23.164Z,94623.00
2023-03-22T23:55:23.321Z,94621.00
2023-03-22T23:59:23.441Z,94625.00
